Time;durP1;ratioP1;P1;durP2;ratioP2;P2;SDS_P1;SDS_P2;PMS_P1;PMS_P2;Temp;Humidity;BMP_temperature;BMP_pressure;BME280_temperature;BME280_humidity;BME280_pressure;Samples;Min_cycle;Max_cycle;Signal;HPM_P1;HPM_P2
2023/02/23 00:01:36;;;;;;;104.33;53.60;;;9.30;99.90;;;;;;5072321;28;20024;-79
2023/02/23 00:04:02;;;;;;;100.50;53.00;;;9.30;99.90;;;;;;5072464;28;20024;-80
2023/02/23 00:06:29;;;;;;;107.10;51.70;;;9.30;99.90;;;;;;5073010;28;20028;-80
2023/02/23 00:08:56;;;;;;;106.07;53.03;;;9.30;99.90;;;;;;5072009;28;20385;-79
2023/02/23 00:11:23;;;;;;;98.47;50.33;;;9.30;99.90;;;;;;5056014;28;20029;-80
2023/02/23 00:13:50;;;;;;;96.83;53.07;;;9.30;99.90;;;;;;5055589;28;20480;-80
2023/02/23 00:16:21;;;;;;;101.43;52.20;;;9.20;99.90;;;;;;5072236;28;20163;-80
2023/02/23 00:18:49;;;;;;;93.03;49.87;;;9.20;99.90;;;;;;5072093;28;20060;-80
2023/02/23 00:21:21;;;;;;;96.93;50.47;;;9.20;99.90;;;;;;5073234;28;20527;-80
2023/02/23 00:24:08;;;;;;;105.63;53.33;;;9.20;99.90;;;;;;5073167;28;20055;-80
2023/02/23 00:26:36;;;;;;;92.17;48.13;;;9.20;99.90;;;;;;5071992;28;20031;-79
2023/02/23 00:29:04;;;;;;;98.87;51.43;;;9.20;99.90;;;;;;5072179;28;20127;-80
2023/02/23 00:31:30;;;;;;;95.03;49.57;;;9.20;99.90;;;;;;5072876;28;20029;-79
2023/02/23 00:33:58;;;;;;;97.17;50.23;;;9.20;99.90;;;;;;5055435;28;20032;-81
2023/02/23 00:36:26;;;;;;;102.73;52.30;;;9.20;99.90;;;;;;5071258;28;20049;-79
2023/02/23 00:38:57;;;;;;;92.10;49.03;;;9.20;99.90;;;;;;5073065;28;20025;-79
2023/02/23 00:41:29;;;;;;;102.93;51.30;;;9.20;99.90;;;;;;5073208;28;20031;-79
2023/02/23 00:43:59;;;;;;;92.73;47.57;;;9.20;99.90;;;;;;5073021;28;20043;-80
2023/02/23 00:46:28;;;;;;;96.90;50.73;;;9.20;99.90;;;;;;5054914;28;20028;-80
2023/02/23 00:48:55;;;;;;;99.53;50.00;;;9.20;99.90;;;;;;5071657;28;20033;-80
2023/02/23 00:51:22;;;;;;;88.67;49.47;;;9.20;99.90;;;;;;5055247;28;20499;-80
2023/02/23 00:53:48;;;;;;;96.07;48.60;;;9.20;99.90;;;;;;5071305;28;20103;-80
2023/02/23 00:56:15;;;;;;;93.57;49.57;;;9.20;99.90;;;;;;5073143;28;20028;-80
2023/02/23 00:58:41;;;;;;;99.20;50.40;;;9.20;99.90;;;;;;5054678;28;20040;-80
2023/02/23 01:01:12;;;;;;;90.30;50.40;;;9.30;99.90;;;;;;5073131;28;20069;-80
2023/02/23 01:03:40;;;;;;;95.10;48.67;;;9.20;99.90;;;;;;5071455;28;20029;-80
2023/02/23 01:06:08;;;;;;;92.57;47.37;;;9.20;99.90;;;;;;5054735;28;20111;-80
2023/02/23 01:08:36;;;;;;;93.40;51.17;;;9.30;99.90;;;;;;5071635;28;20028;-80
2023/02/23 01:11:08;;;;;;;95.90;48.10;;;9.20;99.90;;;;;;5071640;28;20032;-81
2023/02/23 01:13:35;;;;;;;96.53;50.57;;;9.30;99.90;;;;;;5073087;28;20048;-81
2023/02/23 01:16:04;;;;;;;92.93;48.60;;;9.20;99.90;;;;;;5071543;28;20035;-80
2023/02/23 01:18:29;;;;;;;91.67;47.83;;;9.30;99.90;;;;;;5071601;28;20033;-81
2023/02/23 01:20:55;;;;;;;94.60;50.23;;;9.30;99.90;;;;;;5071397;28;20033;-81
2023/02/23 01:23:21;;;;;;;95.47;49.63;;;9.30;99.90;;;;;;5058668;28;20025;-80
2023/02/23 01:25:47;;;;;;;95.83;50.20;;;9.30;99.90;;;;;;5075133;28;20404;-80
2023/02/23 01:28:12;;;;;;;95.87;50.40;;;9.30;99.90;;;;;;5058596;28;20028;-80
2023/02/23 01:30:39;;;;;;;98.70;51.53;;;9.30;99.90;;;;;;5058415;28;20032;-80
2023/02/23 01:33:05;;;;;;;90.30;46.07;;;9.30;99.90;;;;;;5076466;28;20033;-80
2023/02/23 01:35:32;;;;;;;101.43;50.27;;;9.30;99.90;;;;;;5075126;28;20051;-80
2023/02/23 01:37:58;;;;;;;88.93;46.90;;;9.30;99.90;;;;;;5058226;28;20029;-80
2023/02/23 01:40:28;;;;;;;92.10;48.27;;;9.20;99.90;;;;;;5075376;28;20032;-80
2023/02/23 01:43:12;;;;;;;97.13;47.97;;;9.20;99.90;;;;;;5058497;28;20067;-80
2023/02/23 01:45:40;;;;;;;88.10;47.33;;;9.20;99.90;;;;;;5074670;28;20025;-80
2023/02/23 01:48:13;;;;;;;89.43;45.10;;;9.20;99.90;;;;;;5058308;28;20112;-80
2023/02/23 01:50:48;;;;;;;97.70;47.30;;;9.20;99.90;;;;;;5076198;28;20040;-80
2023/02/23 01:53:16;;;;;;;93.60;48.47;;;9.20;99.90;;;;;;5074833;28;20024;-80
2023/02/23 01:55:42;;;;;;;96.87;49.27;;;9.20;99.90;;;;;;5076300;28;20021;-79
2023/02/23 01:58:14;;;;;;;93.50;47.43;;;9.20;99.90;;;;;;5075818;28;20448;-80
2023/02/23 02:00:45;;;;;;;91.20;49.83;;;9.20;99.90;;;;;;5076125;28;20441;-80
2023/02/23 02:03:28;;;;;;;88.70;46.77;;;9.20;99.90;;;;;;5075872;28;20479;-80
2023/02/23 02:05:55;;;;;;;91.87;48.00;;;9.10;99.90;;;;;;5075864;28;20100;-80
2023/02/23 02:08:23;;;;;;;88.00;46.93;;;9.10;99.90;;;;;;5073639;28;20480;-80
2023/02/23 02:10:54;;;;;;;84.53;46.90;;;9.10;99.90;;;;;;5074571;28;20033;-80
2023/02/23 02:13:23;;;;;;;92.00;48.07;;;9.10;99.90;;;;;;5075795;28;20074;-80
2023/02/23 02:16:13;;;;;;;83.47;43.90;;;9.10;99.90;;;;;;5074174;28;20056;-80
2023/02/23 02:18:59;;;;;;;84.33;44.70;;;9.10;99.90;;;;;;5075882;28;20032;-80
2023/02/23 02:21:55;;;;;;;88.37;44.67;;;9.10;99.90;;;;;;5053419;28;20029;-80
2023/02/23 02:24:31;;;;;;;85.07;43.70;;;9.10;99.90;;;;;;5074254;28;20029;-79
2023/02/23 02:27:05;;;;;;;85.20;46.40;;;9.10;99.90;;;;;;5075456;28;20021;-80
2023/02/23 02:29:58;;;;;;;81.10;44.27;;;9.10;99.90;;;;;;5075199;28;20068;-80
2023/02/23 02:32:42;;;;;;;81.60;46.37;;;9.20;99.90;;;;;;5073561;28;20025;-80
2023/02/23 02:35:36;;;;;;;82.45;44.38;;;9.20;99.90;;;;;;5073895;28;20036;-80
2023/02/23 02:38:16;;;;;;;82.72;43.63;;;9.10;99.90;;;;;;5073405;28;20041;-80
2023/02/23 02:40:53;;;;;;;82.20;44.00;;;9.20;99.90;;;;;;5075029;28;20078;-80
2023/02/23 02:43:29;;;;;;;86.83;45.60;;;9.20;99.90;;;;;;5075220;28;20469;-80
2023/02/23 02:45:58;;;;;;;89.87;46.13;;;9.20;99.90;;;;;;5075087;28;20016;-80
2023/02/23 02:48:48;;;;;;;88.63;45.27;;;9.10;99.90;;;;;;5074756;28;20036;-81
2023/02/23 02:51:22;;;;;;;86.33;45.27;;;9.10;99.90;;;;;;5073759;28;20066;-81
2023/02/23 02:54:12;;;;;;;88.13;45.33;;;9.00;99.90;;;;;;5073890;28;20051;-80
2023/02/23 02:56:41;;;;;;;82.03;44.70;;;9.10;99.90;;;;;;5074732;28;20473;-80
2023/02/23 04:17:58;;;;;;;84.70;43.10;;;9.00;99.90;;;;;;5073527;28;20111;-80
2023/02/23 04:20:24;;;;;;;83.43;44.17;;;8.90;99.90;;;;;;5071790;28;20052;-80
2023/02/23 04:22:51;;;;;;;83.77;43.13;;;9.00;99.90;;;;;;5073653;28;20472;-81
2023/02/23 04:25:18;;;;;;;88.27;45.60;;;9.00;99.90;;;;;;5072178;28;20536;-80
2023/02/23 04:27:43;;;;;;;89.33;46.07;;;9.00;99.90;;;;;;5072331;28;20028;-80
2023/02/23 04:30:10;;;;;;;85.70;44.83;;;8.90;99.90;;;;;;5055021;28;20040;-81
2023/02/23 04:32:36;;;;;;;87.87;45.43;;;9.00;99.90;;;;;;5055545;28;20025;-81
2023/02/23 04:35:03;;;;;;;88.33;46.10;;;8.90;99.90;;;;;;5071912;28;20021;-80
2023/02/23 04:37:28;;;;;;;85.60;45.77;;;8.90;99.90;;;;;;5070996;28;20082;-81
2023/02/23 04:39:54;;;;;;;87.93;45.13;;;8.90;99.90;;;;;;5055357;28;20033;-81
2023/02/23 04:42:20;;;;;;;90.23;47.13;;;8.90;99.90;;;;;;5072182;28;20105;-80
2023/02/23 04:44:45;;;;;;;87.13;45.37;;;9.00;99.90;;;;;;5071586;28;20362;-80
2023/02/23 04:47:14;;;;;;;90.57;46.17;;;8.90;99.90;;;;;;5073132;28;20060;-80
2023/02/23 04:49:39;;;;;;;89.20;45.80;;;8.90;99.90;;;;;;5073035;28;20040;-79
2023/02/23 04:52:05;;;;;;;82.77;45.57;;;9.00;99.90;;;;;;5055212;28;20077;-80
2023/02/23 04:54:31;;;;;;;92.63;46.77;;;8.90;99.90;;;;;;5071705;28;20063;-81
2023/02/23 04:56:56;;;;;;;84.73;44.70;;;8.90;99.90;;;;;;5070992;28;20040;-80
2023/02/23 04:59:22;;;;;;;96.07;49.37;;;8.90;99.90;;;;;;5054847;28;20036;-80
2023/02/23 05:01:48;;;;;;;90.27;45.73;;;8.90;99.90;;;;;;5072903;28;20060;-80
2023/02/23 05:04:13;;;;;;;89.53;46.10;;;8.90;99.90;;;;;;5071203;28;20052;-80
2023/02/23 05:06:39;;;;;;;85.20;45.00;;;8.90;99.90;;;;;;5045052;28;20027;-79
2023/02/23 05:09:05;;;;;;;94.10;44.67;;;8.80;99.90;;;;;;5064280;28;20450;-79
2023/02/23 05:11:32;;;;;;;90.63;45.23;;;8.80;99.90;;;;;;5070607;28;20473;-80
2023/02/23 05:13:57;;;;;;;88.17;44.60;;;8.90;99.90;;;;;;5070977;28;20063;-79
2023/02/23 05:16:23;;;;;;;86.50;43.33;;;8.90;99.90;;;;;;5068479;28;20033;-82
2023/02/23 05:18:48;;;;;;;90.30;46.03;;;8.90;99.90;;;;;;5034216;28;20029;-82
2023/02/23 05:21:14;;;;;;;94.70;46.27;;;8.90;99.90;;;;;;5050248;28;20389;-79
2023/02/23 05:23:40;;;;;;;91.47;44.97;;;8.90;99.90;;;;;;5034711;28;20314;-83
2023/02/23 05:26:11;;;;;;;89.50;44.33;;;8.90;99.90;;;;;;5034761;28;20049;-80
2023/02/23 05:28:39;;;;;;;88.03;43.67;;;8.90;99.90;;;;;;5052656;28;20477;-80
2023/02/23 05:31:06;;;;;;;87.13;44.63;;;8.90;99.90;;;;;;5051306;28;20021;-80
2023/02/23 05:33:32;;;;;;;82.03;43.17;;;8.90;99.90;;;;;;5051655;28;20033;-80
2023/02/23 05:35:58;;;;;;;91.27;44.67;;;8.90;99.90;;;;;;5034794;28;20053;-81
2023/02/23 05:38:26;;;;;;;92.27;45.80;;;8.90;99.90;;;;;;5051534;28;20025;-81
2023/02/23 05:40:51;;;;;;;84.00;42.50;;;8.90;99.90;;;;;;5052343;28;20083;-81
2023/02/23 05:43:17;;;;;;;83.47;43.40;;;8.80;99.90;;;;;;5068048;28;20033;-81
2023/02/23 05:45:43;;;;;;;90.70;44.40;;;8.80;99.90;;;;;;5034729;28;20036;-80
2023/02/23 05:48:10;;;;;;;92.50;45.00;;;8.80;99.90;;;;;;5052158;28;20029;-80
2023/02/23 05:50:37;;;;;;;86.80;42.90;;;8.80;99.90;;;;;;5050888;28;20044;-80
2023/02/23 05:53:03;;;;;;;88.80;44.17;;;8.80;99.90;;;;;;5050933;28;20697;-81
2023/02/23 05:55:28;;;;;;;88.03;43.30;;;8.80;99.90;;;;;;5052293;28;20033;-80
2023/02/23 05:57:54;;;;;;;93.50;44.53;;;8.80;99.90;;;;;;5067961;28;20036;-81
2023/02/23 06:00:20;;;;;;;92.63;45.93;;;8.80;99.90;;;;;;5069604;28;20032;-81
2023/02/23 06:02:47;;;;;;;89.33;43.43;;;8.80;99.90;;;;;;5069366;28;20110;-80
2023/02/23 06:05:12;;;;;;;89.07;44.43;;;8.80;99.90;;;;;;5070435;28;20025;-81
2023/02/23 06:07:39;;;;;;;90.07;43.80;;;8.80;99.90;;;;;;5071710;28;20074;-81
2023/02/23 06:10:05;;;;;;;89.17;45.20;;;8.80;99.90;;;;;;5057778;28;20043;-81
2023/02/23 06:12:31;;;;;;;91.33;44.47;;;8.80;99.90;;;;;;5073590;28;20074;-80
2023/02/23 06:14:56;;;;;;;92.73;46.07;;;8.70;99.90;;;;;;5058571;28;20470;-80
2023/02/23 06:17:23;;;;;;;96.87;45.57;;;8.70;99.90;;;;;;5046888;28;20041;-81
2023/02/23 06:19:49;;;;;;;89.87;45.47;;;8.70;99.90;;;;;;5055631;28;20162;-81
2023/02/23 06:22:16;;;;;;;90.53;43.57;;;8.70;99.90;;;;;;5061996;28;20120;-81
2023/02/23 06:24:42;;;;;;;90.07;44.43;;;8.70;99.90;;;;;;5051164;28;20056;-81
2023/02/23 06:27:12;;;;;;;86.83;43.87;;;8.70;99.90;;;;;;5063297;28;20077;-81
2023/02/23 06:29:38;;;;;;;97.63;48.00;;;8.70;99.90;;;;;;5056690;28;20481;-81
2023/02/23 06:32:04;;;;;;;86.93;43.27;;;8.70;99.90;;;;;;5073148;28;20039;-81
2023/02/23 06:34:30;;;;;;;88.73;42.83;;;8.70;99.90;;;;;;5083148;28;20012;-81
2023/02/23 06:36:55;;;;;;;87.60;41.47;;;8.70;99.90;;;;;;5081386;28;20059;-81
2023/02/23 06:39:21;;;;;;;93.80;44.23;;;8.70;99.90;;;;;;5084877;28;20043;-81
2023/02/23 06:41:47;;;;;;;86.23;41.37;;;8.70;99.90;;;;;;5083990;28;20037;-81
2023/02/23 06:44:12;;;;;;;87.37;42.53;;;8.70;99.90;;;;;;5083935;28;20028;-81
2023/02/23 06:46:38;;;;;;;86.00;41.37;;;8.70;99.90;;;;;;5084001;28;20493;-81
2023/02/23 06:49:04;;;;;;;85.33;41.37;;;8.70;99.90;;;;;;5082567;28;21387;-81
2023/02/23 06:51:29;;;;;;;82.97;41.90;;;8.70;99.90;;;;;;5069355;28;20063;-81
2023/02/23 06:53:55;;;;;;;83.27;42.30;;;8.80;99.90;;;;;;5094456;28;20032;-81
2023/02/23 06:56:21;;;;;;;85.40;42.60;;;8.70;99.90;;;;;;5094016;28;20361;-81
2023/02/23 06:58:47;;;;;;;85.53;39.90;;;8.70;99.90;;;;;;5093871;28;20028;-81
2023/02/23 07:01:14;;;;;;;89.03;41.50;;;8.70;99.90;;;;;;5094080;28;20020;-83
2023/02/23 07:03:40;;;;;;;88.87;42.90;;;8.70;99.90;;;;;;5095624;28;20052;-83
2023/02/23 07:06:06;;;;;;;87.63;41.60;;;8.60;99.90;;;;;;5093648;28;20035;-83
2023/02/23 07:08:32;;;;;;;85.63;43.93;;;8.60;99.90;;;;;;5094083;28;20068;-83
2023/02/23 07:11:09;;;;;;;86.70;41.30;;;8.60;99.90;;;;;;5094123;28;20051;-82
2023/02/23 07:13:34;;;;;;;86.17;43.03;;;8.60;99.90;;;;;;5095407;28;20110;-83
2023/02/23 07:16:00;;;;;;;87.23;42.50;;;8.60;99.90;;;;;;5079516;28;20480;-83
2023/02/23 07:18:25;;;;;;;83.03;39.93;;;8.60;99.90;;;;;;5075040;28;20028;-84
2023/02/23 07:20:51;;;;;;;81.17;39.60;;;8.60;99.90;;;;;;5072922;28;20109;-83
2023/02/23 07:23:17;;;;;;;84.80;41.90;;;8.60;99.90;;;;;;5073643;28;20550;-83
2023/02/23 07:25:43;;;;;;;88.07;41.87;;;8.60;99.90;;;;;;5056588;28;20021;-83
2023/02/23 07:28:12;;;;;;;86.57;41.07;;;8.60;99.90;;;;;;5073975;28;20112;-84
2023/02/23 07:30:38;;;;;;;88.57;42.30;;;8.60;99.90;;;;;;5074781;28;20400;-83
2023/02/23 07:33:04;;;;;;;77.47;38.80;;;8.60;99.90;;;;;;5073481;28;20020;-83
2023/02/23 07:35:30;;;;;;;85.13;40.23;;;8.60;99.90;;;;;;5057948;28;20024;-83
2023/02/23 07:37:55;;;;;;;78.60;39.97;;;8.60;99.90;;;;;;5073579;28;20045;-82
2023/02/23 07:40:21;;;;;;;77.30;39.27;;;8.60;99.90;;;;;;5073989;28;20028;-83
2023/02/23 07:42:46;;;;;;;80.63;38.30;;;8.60;99.90;;;;;;5073701;28;20473;-83
2023/02/23 07:45:12;;;;;;;75.70;38.00;;;8.60;99.90;;;;;;5073430;28;20032;-82
2023/02/23 07:47:38;;;;;;;83.23;39.00;;;8.60;99.90;;;;;;5073663;28;20024;-83
2023/02/23 07:50:08;;;;;;;77.97;39.50;;;8.60;99.90;;;;;;5073828;28;20476;-84
2023/02/23 07:52:36;;;;;;;75.73;36.80;;;8.60;99.90;;;;;;5073702;28;20388;-84
2023/02/23 07:55:02;;;;;;;80.60;37.67;;;8.60;99.90;;;;;;5073209;28;20053;-83
2023/02/23 07:57:27;;;;;;;75.93;38.13;;;8.60;99.90;;;;;;5072881;28;20177;-84
2023/02/23 07:59:54;;;;;;;78.23;37.77;;;8.70;99.90;;;;;;5072525;28;20119;-83
2023/02/23 08:02:19;;;;;;;72.97;36.33;;;8.70;99.90;;;;;;5056394;28;20079;-83
2023/02/23 08:04:45;;;;;;;76.13;37.53;;;8.70;99.90;;;;;;5072636;28;20492;-84
2023/02/23 08:07:11;;;;;;;67.60;34.73;;;8.70;99.90;;;;;;5055382;28;20468;-83
2023/02/23 08:09:36;;;;;;;69.40;35.77;;;8.70;99.90;;;;;;5073218;28;20040;-83
2023/02/23 08:12:02;;;;;;;71.93;36.57;;;8.80;99.90;;;;;;5055569;28;20032;-83
2023/02/23 08:14:28;;;;;;;78.17;37.90;;;8.80;99.90;;;;;;5072734;28;20033;-83
2023/02/23 08:16:54;;;;;;;70.30;35.77;;;8.80;99.90;;;;;;5072269;28;20020;-83
2023/02/23 08:19:21;;;;;;;75.57;37.20;;;8.80;99.90;;;;;;5072074;28;20107;-83
2023/02/23 08:21:48;;;;;;;65.97;36.30;;;8.90;99.90;;;;;;5072058;28;20037;-83
2023/02/23 08:24:14;;;;;;;66.93;34.33;;;8.90;99.90;;;;;;5071416;28;20106;-82
2023/02/23 08:26:40;;;;;;;68.07;34.73;;;8.90;99.90;;;;;;5088444;28;20029;-83
2023/02/23 08:29:07;;;;;;;69.07;36.47;;;8.90;99.90;;;;;;5072475;28;20032;-82
2023/02/23 08:31:33;;;;;;;65.03;34.93;;;9.00;99.90;;;;;;5073734;28;20028;-83
2023/02/23 08:33:59;;;;;;;70.40;34.43;;;9.00;99.90;;;;;;5071929;28;20024;-83
2023/02/23 08:36:24;;;;;;;65.77;35.10;;;9.00;99.90;;;;;;5054966;28;20063;-84
2023/02/23 08:38:50;;;;;;;65.33;34.03;;;9.10;99.90;;;;;;5072907;28;20028;-84
2023/02/23 08:41:16;;;;;;;63.67;33.40;;;9.10;99.90;;;;;;5072202;28;20017;-85
2023/02/23 08:43:42;;;;;;;69.43;37.50;;;9.10;99.90;;;;;;5089380;28;20036;-84
2023/02/23 08:46:08;;;;;;;67.00;34.90;;;9.20;99.90;;;;;;5072070;28;20058;-82
2023/02/23 08:48:34;;;;;;;65.97;34.70;;;9.20;99.90;;;;;;5071788;28;20039;-84
2023/02/23 08:51:01;;;;;;;67.23;34.77;;;9.20;99.90;;;;;;5055472;28;20119;-85
2023/02/23 08:53:28;;;;;;;67.63;34.73;;;9.20;99.90;;;;;;5073543;28;20028;-83
2023/02/23 08:55:59;;;;;;;69.17;35.87;;;9.30;99.90;;;;;;5055008;28;20024;-83
2023/02/23 08:58:25;;;;;;;65.07;35.60;;;9.30;99.90;;;;;;5088364;28;20024;-83
2023/02/23 09:00:52;;;;;;;61.33;32.67;;;9.30;99.90;;;;;;5071759;28;20040;-84
2023/02/23 09:03:18;;;;;;;64.37;35.13;;;9.30;99.90;;;;;;5071881;28;20358;-83
2023/02/23 09:05:44;;;;;;;64.97;34.90;;;9.30;99.90;;;;;;5071538;28;20029;-83
2023/02/23 09:08:11;;;;;;;64.27;35.17;;;9.40;99.90;;;;;;5070856;28;20039;-83
2023/02/23 09:10:37;;;;;;;68.27;36.23;;;9.30;99.90;;;;;;5054735;28;20082;-83
2023/02/23 09:13:02;;;;;;;69.00;38.23;;;9.30;99.90;;;;;;5055156;28;20025;-84
2023/02/23 09:15:29;;;;;;;69.40;37.43;;;9.30;99.90;;;;;;5073120;28;20372;-83
2023/02/23 09:18:00;;;;;;;72.97;36.03;;;9.30;99.90;;;;;;5071508;28;20056;-83
2023/02/23 09:20:25;;;;;;;72.17;37.37;;;9.40;99.90;;;;;;5072777;28;20032;-82
2023/02/23 09:22:52;;;;;;;73.40;36.80;;;9.30;99.90;;;;;;5054993;28;20037;-83
2023/02/23 09:25:21;;;;;;;70.40;36.53;;;9.30;99.90;;;;;;5071426;28;20155;-83
2023/02/23 09:27:55;;;;;;;71.27;35.33;;;9.30;99.90;;;;;;5055270;28;20024;-84
2023/02/23 09:30:21;;;;;;;69.50;37.03;;;9.30;99.90;;;;;;5071303;28;20523;-83
2023/02/23 09:32:48;;;;;;;75.43;37.43;;;9.30;99.90;;;;;;5055148;28;20710;-84
2023/02/23 09:35:16;;;;;;;68.33;34.30;;;9.40;99.90;;;;;;5054538;28;20061;-83
2023/02/23 09:37:53;;;;;;;70.27;36.20;;;9.40;99.90;;;;;;5072219;28;20123;-83
2023/02/23 09:40:29;;;;;;;69.10;34.97;;;9.40;99.90;;;;;;5072787;28;20052;-84
2023/02/23 09:43:13;;;;;;;71.90;37.40;;;9.40;99.90;;;;;;5073912;28;20024;-83
2023/02/23 09:46:09;;;;;;;69.35;35.58;;;9.40;99.90;;;;;;5074683;28;20032;-84
2023/02/23 09:48:34;;;;;;;69.83;36.43;;;9.50;99.90;;;;;;5076296;28;20468;-84
2023/02/23 09:51:01;;;;;;;70.40;36.93;;;9.50;99.90;;;;;;5076421;28;20024;-84
2023/02/23 09:53:41;;;;;;;69.37;35.83;;;9.50;99.90;;;;;;5076884;28;20066;-84
2023/02/23 09:56:27;;;;;;;66.30;35.00;;;9.50;99.90;;;;;;5076041;28;20024;-83
2023/02/23 09:58:53;;;;;;;68.90;35.97;;;9.60;99.90;;;;;;5075155;28;20025;-84
2023/02/23 10:01:33;;;;;;;68.33;35.07;;;9.50;99.90;;;;;;5058804;28;20031;-83
2023/02/23 10:04:10;;;;;;;71.60;35.23;;;9.60;99.90;;;;;;5075016;28;20093;-83
2023/02/23 10:06:39;;;;;;;71.13;35.50;;;9.50;99.90;;;;;;5074644;28;20380;-85
2023/02/23 10:09:14;;;;;;;69.33;36.03;;;9.60;99.90;;;;;;5074471;28;20033;-82
2023/02/23 10:11:57;;;;;;;65.83;35.07;;;9.50;99.90;;;;;;5074667;28;20028;-83
2023/02/23 10:14:57;;;;;;;68.47;36.03;;;9.50;99.90;;;;;;5074621;28;20111;-84
2023/02/23 10:17:27;;;;;;;69.23;35.40;;;9.50;99.90;;;;;;5091928;28;20021;-83
2023/02/23 10:20:08;;;;;;;66.33;35.20;;;9.50;99.90;;;;;;5075290;28;20020;-83
2023/02/23 10:22:34;;;;;;;72.63;36.20;;;9.50;99.90;;;;;;5075792;28;20068;-82
2023/02/23 10:25:31;;;;;;;68.70;34.90;;;9.50;99.90;;;;;;5075918;28;20025;-83
2023/02/23 10:27:59;;;;;;;74.83;34.20;;;9.40;99.90;;;;;;5067280;28;20045;-83
2023/02/23 10:30:28;;;;;;;67.33;35.07;;;9.50;99.90;;;;;;5075503;28;20067;-84
2023/02/23 10:33:09;;;;;;;70.20;37.40;;;9.50;99.90;;;;;;5073796;28;20024;-84
2023/02/23 10:35:37;;;;;;;70.80;35.30;;;9.50;99.90;;;;;;5074102;28;20031;-83
2023/02/23 10:38:03;;;;;;;67.87;33.47;;;9.50;99.90;;;;;;5075307;28;20068;-84
2023/02/23 10:40:32;;;;;;;66.43;35.37;;;9.60;99.90;;;;;;5073906;28;20067;-84
2023/02/23 10:43:01;;;;;;;62.53;34.63;;;9.50;99.90;;;;;;5075575;28;20120;-83
2023/02/23 10:45:29;;;;;;;71.83;34.80;;;9.60;99.90;;;;;;5074262;28;20025;-84
2023/02/23 10:48:03;;;;;;;65.33;34.23;;;9.50;99.90;;;;;;5075341;28;20033;-84
2023/02/23 10:50:29;;;;;;;;;;;9.60;99.90;;;;;;5075707;28;20036;-84
2023/02/23 10:53:16;;;;;;;61.07;31.07;;;9.60;99.90;;;;;;5073967;28;19909;-83
2023/02/23 10:55:44;;;;;;;62.30;32.20;;;9.50;99.90;;;;;;5073117;28;20064;-84
2023/02/23 10:58:17;;;;;;;65.07;33.93;;;9.50;99.90;;;;;;5073771;28;20043;-83
2023/02/23 11:00:53;;;;;;;60.60;31.03;;;9.60;99.90;;;;;;5073792;28;20020;-82
2023/02/23 11:03:34;;;;;;;58.00;30.23;;;9.60;99.90;;;;;;5073667;28;20032;-83
2023/02/23 11:06:00;;;;;;;63.73;31.83;;;9.60;99.90;;;;;;5072870;28;20021;-79
2023/02/23 11:08:28;;;;;;;65.50;32.43;;;9.60;99.90;;;;;;5057291;28;20098;-83
2023/02/23 11:10:56;;;;;;;66.03;33.47;;;9.60;99.90;;;;;;5073568;28;20051;-84
2023/02/23 11:13:25;;;;;;;62.13;31.77;;;9.60;99.90;;;;;;5073929;28;20079;-83
2023/02/23 11:16:09;;;;;;;64.90;33.77;;;9.60;99.90;;;;;;5073896;28;20020;-83
2023/02/23 11:18:35;;;;;;;60.40;30.55;;;9.70;99.90;;;;;;5074876;28;20017;-82
2023/02/23 11:21:01;;;;;;;59.00;31.53;;;9.70;99.90;;;;;;5057122;28;20032;-83
2023/02/23 11:23:32;;;;;;;65.67;32.43;;;9.70;99.90;;;;;;5074624;28;20029;-82
2023/02/23 11:26:01;;;;;;;61.27;31.10;;;9.70;99.90;;;;;;5073579;28;20024;-83
2023/02/23 11:28:35;;;;;;;60.30;31.07;;;9.80;99.90;;;;;;5074247;28;20174;-84
2023/02/23 11:31:18;;;;;;;59.30;29.87;;;9.80;99.90;;;;;;5074781;28;20043;-83
2023/02/23 11:33:47;;;;;;;56.57;29.27;;;9.90;99.90;;;;;;5074184;28;20380;-83
2023/02/23 11:36:22;;;;;;;58.53;30.17;;;9.90;99.90;;;;;;5074297;28;20393;-83
2023/02/23 11:39:00;;;;;;;55.50;28.57;;;9.90;99.90;;;;;;5074000;28;20031;-83
2023/02/23 11:41:26;;;;;;;54.20;28.07;;;9.90;99.90;;;;;;5073746;28;20421;-84
2023/02/23 11:43:57;;;;;;;48.93;24.60;;;9.90;99.90;;;;;;5073155;28;20108;-83
2023/02/23 11:46:25;;;;;;;55.90;26.33;;;9.90;99.90;;;;;;5072967;28;20028;-84
2023/02/23 11:49:06;;;;;;;52.70;26.87;;;9.90;99.90;;;;;;5073004;28;20123;-83
2023/02/23 11:51:36;;;;;;;52.97;26.10;;;9.90;99.90;;;;;;5074223;28;20033;-84
2023/02/23 11:54:03;;;;;;;52.63;25.67;;;9.90;99.90;;;;;;5074466;28;20016;-81
2023/02/23 11:56:32;;;;;;;49.83;25.37;;;9.90;99.90;;;;;;5072730;28;20483;-83
2023/02/23 11:59:07;;;;;;;49.70;24.70;;;9.90;99.90;;;;;;5074657;28;20085;-82
2023/02/23 12:01:45;;;;;;;53.17;24.37;;;9.90;99.90;;;;;;5081150;28;20020;-83
2023/02/23 12:04:33;;;;;;;48.10;24.17;;;9.90;99.90;;;;;;5080598;28;20032;-84
2023/02/23 12:07:17;;;;;;;46.20;21.60;;;10.00;99.90;;;;;;5075598;28;20389;-83
2023/02/23 12:09:46;;;;;;;43.87;22.13;;;10.00;99.90;;;;;;5074499;28;20037;-85
2023/02/23 12:12:20;;;;;;;43.87;22.10;;;10.00;99.90;;;;;;5073513;28;20024;-85
2023/02/23 12:14:59;;;;;;;;;;;10.00;99.90;;;;;;5074595;28;20487;-83
2023/02/23 12:17:35;;;;;;;41.97;21.67;;;10.10;99.90;;;;;;5072240;28;20442;-83
2023/02/23 12:20:14;;;;;;;43.23;21.47;;;10.10;99.90;;;;;;5072685;28;20027;-83
2023/02/23 12:23:06;;;;;;;44.20;21.17;;;10.10;99.90;;;;;;5072099;28;20027;-83
2023/02/23 12:25:44;;;;;;;45.27;22.10;;;10.10;99.90;;;;;;5065961;28;20047;-84
2023/02/23 12:28:35;;;;;;;44.10;21.77;;;10.10;99.90;;;;;;5071976;28;20024;-85
2023/02/23 12:31:18;;;;;;;47.27;22.80;;;10.10;99.90;;;;;;5072149;28;20140;-84
2023/02/23 12:33:47;;;;;;;40.55;20.52;;;10.10;99.90;;;;;;5072273;28;20025;-85
2023/02/23 12:36:39;;;;;;;44.13;22.13;;;10.10;99.90;;;;;;5071749;28;20041;-84
2023/02/23 12:39:19;;;;;;;41.37;20.77;;;10.10;99.90;;;;;;5073623;28;20036;-84
2023/02/23 12:41:56;;;;;;;43.90;22.43;;;10.10;99.90;;;;;;5072222;28;20025;-84
2023/02/23 12:44:41;;;;;;;42.23;20.03;;;10.10;99.90;;;;;;5073586;28;20486;-84
2023/02/23 12:47:17;;;;;;;41.23;20.53;;;10.10;99.90;;;;;;5073828;28;20104;-85
2023/02/23 12:50:15;;;;;;;39.67;19.57;;;10.10;99.90;;;;;;5072158;28;20151;-85
2023/02/23 12:52:48;;;;;;;37.70;19.83;;;10.10;99.90;;;;;;5073096;28;20024;-84
2023/02/23 12:55:20;;;;;;;34.20;18.03;;;10.10;99.90;;;;;;5088545;28;20028;-84
2023/02/23 12:57:53;;;;;;;39.17;20.50;;;10.10;99.90;;;;;;5071668;28;20100;-84
2023/02/23 13:00:40;;;;;;;35.42;17.52;;;10.00;99.90;;;;;;5071651;28;20016;-84
2023/02/23 13:03:42;;;;;;;33.90;16.53;;;10.00;99.90;;;;;;5071913;28;20028;-85
2023/02/23 13:06:11;;;;;;;32.23;14.47;;;10.00;99.90;;;;;;5071579;28;20073;-84
2023/02/23 13:09:17;;;;;;;30.07;13.93;;;10.00;99.90;;;;;;5072123;28;20123;-83
2023/02/23 13:12:13;;;;;;;27.07;12.93;;;10.00;99.90;;;;;;5088647;28;20063;-84
2023/02/23 13:14:53;;;;;;;24.67;11.87;;;10.00;99.90;;;;;;5071952;28;20354;-84
2023/02/23 13:17:30;;;;;;;22.70;11.23;;;10.00;99.90;;;;;;5072816;28;20070;-85
2023/02/23 13:20:19;;;;;;;22.10;10.77;;;10.00;99.90;;;;;;5076129;28;20025;-84
2023/02/23 13:22:50;;;;;;;23.03;10.20;;;10.00;99.90;;;;;;5075231;28;20055;-84
2023/02/23 13:25:22;;;;;;;24.50;10.70;;;10.00;99.90;;;;;;5076027;28;20036;-84
2023/02/23 13:27:54;;;;;;;24.10;11.27;;;10.00;99.90;;;;;;5076306;28;20468;-85
2023/02/23 13:30:21;;;;;;;22.83;10.90;;;10.00;99.90;;;;;;5076085;28;20040;-84
2023/02/23 13:32:47;;;;;;;22.40;10.40;;;10.00;99.90;;;;;;5059188;28;20365;-85
2023/02/23 13:35:16;;;;;;;26.57;11.57;;;10.00;99.90;;;;;;5076593;28;20082;-84
2023/02/23 13:37:58;;;;;;;21.83;9.90;;;10.00;99.90;;;;;;5075416;28;20052;-85
2023/02/23 13:40:43;;;;;;;20.63;9.63;;;9.90;99.90;;;;;;5075120;28;20028;-84
2023/02/23 13:43:16;;;;;;;20.60;10.57;;;9.90;99.90;;;;;;5076976;28;20028;-83
2023/02/23 13:46:00;;;;;;;20.07;9.80;;;9.90;99.90;;;;;;5075928;28;20032;-84
2023/02/23 13:48:46;;;;;;;18.45;8.80;;;9.90;99.90;;;;;;5076691;28;20673;-85
2023/02/23 13:51:25;;;;;;;18.93;8.30;;;10.00;99.90;;;;;;5075164;28;20369;-84
2023/02/23 13:53:57;;;;;;;18.63;8.63;;;10.00;99.90;;;;;;5075381;28;20020;-84
2023/02/23 13:56:25;;;;;;;20.53;9.27;;;10.00;99.90;;;;;;5074241;28;20021;-85
2023/02/23 13:59:01;;;;;;;21.20;10.13;;;10.10;99.90;;;;;;5075588;28;20031;-84
2023/02/23 14:01:39;;;;;;;17.07;7.73;;;10.20;99.90;;;;;;5074782;28;20021;-84
2023/02/23 14:04:14;;;;;;;17.43;8.03;;;10.20;99.90;;;;;;5074260;28;20020;-84
2023/02/23 14:06:55;;;;;;;17.90;8.50;;;10.30;99.90;;;;;;5074228;28;20063;-83
2023/02/23 14:09:36;;;;;;;18.07;7.97;;;10.40;99.90;;;;;;5076572;28;20358;-85
2023/02/23 14:12:43;;;;;;;16.30;7.70;;;10.50;99.90;;;;;;5073772;28;20028;-84
2023/02/23 14:15:36;;;;;;;15.57;6.75;;;10.50;99.90;;;;;;4974992;28;20027;-84